FMMI/TNR METAR and TAF weather

Enter ICAO airport designator
Station Type Date Time Source
FMMI METAR 2019/08/18 19:30 UTC NOAA

FMMI 181930Z 11006KT 090V150 9999 FEW023 13/11 Q1025 NOSIG


Station Type Date Time Source
FMMI Decoded METAR 2019/08/18 19:30 UTC NOAA

Station name not available
Aug 18, 2019 - 03:30 PM EDT / 2019.08.18 1930 UTC
Wind: from the ESE (110 degrees) at 7 MPH (6 KT) (direction variable):0
Visibility: greater than 7 mile(s):0
Sky conditions: mostly clear
Temperature: 55 F (13 C)
Dew Point: 51 F (11 C)
Relative Humidity: 87%
Pressure (altimeter): 30.27 in. Hg (1025 hPa)
ob: FMMI 181930Z 11006KT 090V150 9999 FEW023 13/11 Q1025 NOSIG
cycle: 19

Station Type Date Time Source
FMMI TAF 2019/08/18 18:06 UTC NOAA

TAF FMMI 181700Z 1818/1924 12010KT 9999 FEW020

Example: see airport list